createdAt,value
2023-02-17T00:00:52.438Z,81.58
2023-02-17T00:04:07.325Z,79.45
2023-02-17T00:07:19.452Z,82.45
2023-02-17T00:10:31.408Z,82.80
2023-02-17T00:13:43.700Z,84.50
2023-02-17T00:16:55.905Z,82.72
2023-02-17T00:20:08.177Z,79.45
2023-02-17T00:23:20.142Z,80.90
2023-02-17T00:26:32.183Z,79.18
2023-02-17T00:29:44.415Z,83.55
2023-02-17T00:32:56.386Z,93.15
2023-02-17T00:36:12.862Z,81.50
2023-02-17T00:39:25.377Z,76.18
2023-02-17T00:42:37.481Z,82.70
2023-02-17T00:45:49.584Z,74.38
2023-02-17T00:49:01.634Z,78.90
2023-02-17T00:52:13.721Z,74.05
2023-02-17T00:55:26.726Z,72.20
2023-02-17T00:58:39.214Z,81.55
2023-02-17T01:01:51.451Z,75.98
2023-02-17T01:05:03.621Z,73.33
2023-02-17T01:08:17.779Z,75.63
2023-02-17T01:11:34.006Z,81.05
2023-02-17T01:14:45.989Z,76.43
2023-02-17T01:17:58.249Z,77.40
2023-02-17T01:21:10.560Z,81.55
2023-02-17T01:24:22.730Z,79.00
2023-02-17T01:27:34.838Z,77.53
2023-02-17T01:30:46.910Z,76.73
2023-02-17T01:34:00.178Z,77.73
2023-02-17T01:37:12.608Z,73.88
2023-02-17T01:40:24.860Z,75.80
2023-02-17T01:43:37.546Z,76.20
2023-02-17T01:46:52.141Z,76.55
2023-02-17T01:50:04.200Z,75.53
2023-02-17T01:53:21.852Z,72.40
2023-02-17T01:59:46.311Z,78.38
2023-02-17T02:03:00.912Z,77.88
2023-02-17T02:06:17.818Z,74.83
2023-02-17T02:09:34.613Z,73.63
2023-02-17T02:12:48.299Z,75.25
2023-02-17T02:16:06.105Z,75.23
2023-02-17T02:19:42.519Z,77.38
2023-02-17T02:23:20.369Z,77.35
2023-02-17T02:27:22.522Z,68.68
2023-02-17T02:31:14.641Z,77.30
2023-02-17T02:34:32.128Z,71.98
2023-02-17T02:37:50.025Z,79.15
2023-02-17T02:41:10.284Z,72.40
2023-02-17T02:44:24.771Z,74.30
2023-02-17T02:48:00.815Z,72.15
2023-02-17T02:51:31.522Z,74.88
2023-02-17T02:54:56.349Z,78.25
2023-02-17T02:58:14.578Z,73.55
2023-02-17T03:01:33.479Z,71.58
2023-02-17T03:04:52.314Z,70.98
2023-02-17T03:08:10.740Z,71.68
2023-02-17T03:11:27.036Z,73.93
2023-02-17T03:14:44.769Z,83.20
2023-02-17T03:17:56.929Z,75.05
2023-02-17T03:21:15.703Z,73.55
2023-02-17T03:24:28.065Z,71.00
2023-02-17T03:27:40.277Z,72.95
2023-02-17T03:30:52.466Z,72.98
2023-02-17T03:34:05.340Z,75.83
2023-02-17T03:37:17.405Z,74.08
2023-02-17T03:40:29.528Z,74.00
2023-02-17T03:43:41.597Z,68.85
2023-02-17T03:46:53.695Z,74.23
2023-02-17T03:50:05.810Z,75.38
2023-02-17T03:53:20.831Z,80.08
2023-02-17T03:56:33.403Z,80.68
2023-02-17T03:59:45.470Z,69.83
2023-02-17T04:02:57.762Z,70.98
2023-02-17T04:06:12.096Z,71.23
2023-02-17T04:09:24.280Z,72.33
2023-02-17T04:12:36.341Z,70.45
2023-02-17T04:15:48.472Z,72.65
2023-02-17T04:19:00.910Z,67.63
2023-02-17T04:22:13.019Z,66.20
2023-02-17T04:25:25.210Z,68.00
2023-02-17T04:28:37.920Z,75.50
2023-02-17T04:31:50.015Z,71.35
2023-02-17T04:35:02.117Z,74.00
2023-02-17T04:38:15.725Z,62.60
2023-02-17T04:41:27.930Z,61.45
2023-02-17T04:44:40.148Z,65.13
2023-02-17T04:47:52.072Z,65.15
2023-02-17T04:51:04.032Z,65.78
2023-02-17T04:54:16.017Z,69.78
2023-02-17T04:57:28.376Z,69.38
2023-02-17T05:00:40.386Z,64.38
2023-02-17T05:03:52.464Z,64.40
2023-02-17T05:07:04.498Z,68.75
2023-02-17T05:10:18.522Z,73.33
2023-02-17T05:13:30.672Z,71.83
2023-02-17T05:16:42.694Z,70.13
2023-02-17T05:19:54.690Z,68.10
2023-02-17T05:23:06.708Z,64.73
2023-02-17T05:26:18.688Z,65.45
2023-02-17T05:29:30.672Z,61.25
2023-02-17T05:32:42.749Z,64.83
2023-02-17T05:35:54.733Z,68.03
2023-02-17T05:39:06.863Z,68.53
2023-02-17T05:42:19.096Z,65.33
2023-02-17T05:45:31.377Z,60.80
2023-02-17T05:48:44.299Z,65.00
2023-02-17T05:51:56.297Z,67.85
2023-02-17T05:55:08.843Z,69.13
2023-02-17T05:58:20.926Z,65.20
2023-02-17T06:01:32.864Z,65.20
2023-02-17T06:04:45.399Z,65.28
2023-02-17T06:07:57.484Z,71.13
2023-02-17T06:11:10.128Z,61.70
2023-02-17T06:14:22.173Z,64.35
2023-02-17T06:17:34.509Z,80.90
2023-02-17T06:20:46.993Z,139.38
2023-02-17T06:23:59.108Z,70.33
2023-02-17T06:27:11.230Z,63.70
2023-02-17T06:30:26.467Z,62.90
2023-02-17T06:33:38.653Z,71.68
2023-02-17T06:36:50.607Z,68.40
2023-02-17T06:40:02.699Z,62.90
2023-02-17T06:43:17.368Z,159.75
2023-02-17T06:46:30.472Z,95.68
2023-02-17T06:52:43.876Z,63.03
2023-02-17T06:55:57.497Z,74.63
2023-02-17T06:59:11.271Z,67.40
2023-02-17T07:02:24.736Z,66.98
2023-02-17T07:05:39.925Z,64.73
2023-02-17T07:08:52.278Z,66.90
2023-02-17T07:12:05.074Z,68.25
2023-02-17T07:15:21.236Z,69.20
2023-02-17T07:18:34.473Z,72.40
2023-02-17T07:21:47.683Z,69.00
2023-02-17T07:52:59.732Z,74.75
2023-02-17T08:08:35.722Z,76.33
2023-02-17T08:12:04.665Z,69.70
2023-02-17T08:43:16.589Z,38.75
2023-02-17T08:46:30.282Z,39.85
2023-02-17T08:49:49.896Z,35.80
2023-02-17T09:08:19.524Z,30.45
2023-02-17T09:11:34.187Z,31.93
2023-02-17T09:14:46.375Z,28.58
2023-02-17T09:18:02.044Z,28.85
2023-02-17T09:24:15.615Z,32.93
2023-02-17T09:27:27.690Z,25.63
2023-02-17T09:33:40.032Z,29.45
2023-02-17T09:36:52.396Z,28.53
2023-02-17T09:40:04.559Z,25.23
2023-02-17T09:43:23.030Z,29.93
2023-02-17T09:46:44.845Z,21.77
2023-02-17T09:49:58.204Z,25.25
2023-02-17T09:56:19.770Z,24.88
2023-02-17T10:02:41.147Z,21.80
2023-02-17T10:06:04.023Z,21.00
2023-02-17T10:12:20.569Z,23.18
2023-02-17T10:15:39.617Z,26.20
2023-02-17T10:19:01.018Z,26.73
2023-02-17T10:22:21.032Z,30.98
2023-02-17T10:25:49.314Z,24.90
2023-02-17T10:29:07.341Z,23.02
2023-02-17T10:32:31.279Z,24.60
2023-02-17T10:36:01.096Z,24.50
2023-02-17T10:39:19.776Z,20.10
2023-02-17T10:42:38.021Z,25.20
2023-02-17T10:45:53.670Z,22.68
2023-02-17T10:49:07.734Z,22.25
2023-02-17T10:52:23.205Z,22.60
2023-02-17T10:55:44.042Z,20.30
2023-02-17T10:59:02.959Z,20.48
2023-02-17T11:02:26.379Z,20.98
2023-02-17T11:05:40.645Z,21.03
2023-02-17T11:09:00.937Z,20.05
2023-02-17T11:12:21.074Z,25.13
2023-02-17T11:15:37.140Z,21.55
2023-02-17T11:18:53.695Z,18.77
2023-02-17T11:22:08.910Z,18.43
2023-02-17T11:25:32.798Z,21.85
2023-02-17T11:28:45.556Z,22.20
2023-02-17T11:32:07.760Z,17.85
2023-02-17T11:35:34.974Z,18.33
2023-02-17T11:38:51.915Z,16.58
2023-02-17T11:42:04.007Z,17.15
2023-02-17T11:45:23.365Z,17.03
2023-02-17T11:49:02.715Z,18.18
2023-02-17T11:52:35.768Z,20.28
2023-02-17T11:55:59.612Z,17.73
2023-02-17T11:59:34.919Z,19.20
2023-02-17T12:03:49.290Z,20.78
2023-02-17T12:07:33.259Z,17.33
2023-02-17T12:10:58.348Z,12.95
2023-02-17T12:14:34.681Z,12.70
2023-02-17T12:17:55.246Z,12.73
2023-02-17T12:21:13.791Z,14.13
2023-02-17T12:24:32.314Z,13.30
2023-02-17T12:28:04.283Z,13.70
2023-02-17T12:31:25.789Z,13.80
2023-02-17T12:34:41.303Z,14.65
2023-02-17T12:37:59.749Z,14.63
2023-02-17T12:41:16.786Z,14.10
2023-02-17T12:44:35.216Z,15.03
2023-02-17T12:47:56.719Z,11.88
2023-02-17T12:51:15.709Z,17.75
2023-02-17T12:57:37.306Z,12.30
2023-02-17T13:00:55.194Z,13.25
2023-02-17T13:04:08.721Z,13.88
2023-02-17T13:07:56.595Z,14.98
2023-02-17T13:11:12.301Z,11.15
2023-02-17T13:14:37.062Z,12.20
2023-02-17T13:18:03.191Z,13.88
2023-02-17T13:21:32.039Z,11.05
2023-02-17T13:24:56.864Z,10.23
2023-02-17T13:28:23.658Z,11.05
2023-02-17T13:31:37.562Z,8.85
2023-02-17T13:34:51.288Z,13.00
2023-02-17T13:38:03.426Z,10.83
2023-02-17T13:41:19.876Z,11.10
2023-02-17T13:44:37.892Z,11.90
2023-02-17T13:47:52.603Z,12.58
2023-02-17T13:51:07.768Z,11.08
2023-02-17T13:54:25.419Z,8.10
2023-02-17T13:57:40.425Z,8.38
2023-02-17T14:00:52.691Z,8.28
2023-02-17T14:04:06.621Z,13.23
2023-02-17T14:07:19.866Z,8.95
2023-02-17T14:10:33.131Z,7.25
2023-02-17T14:13:48.882Z,9.00
2023-02-17T14:17:10.778Z,10.13
2023-02-17T14:20:39.095Z,11.28
2023-02-17T14:23:55.100Z,8.18
2023-02-17T14:27:12.715Z,12.70
2023-02-17T14:30:35.812Z,11.18
2023-02-17T14:33:57.590Z,9.28
2023-02-17T14:37:22.428Z,11.00
2023-02-17T14:40:34.831Z,7.75
2023-02-17T14:43:47.031Z,8.48
2023-02-17T14:46:59.192Z,9.88
2023-02-17T14:50:13.266Z,9.38
2023-02-17T14:56:32.731Z,9.73
2023-02-17T14:59:45.596Z,10.20
2023-02-17T15:08:58.632Z,15.65
2023-02-17T15:12:15.674Z,9.95
2023-02-17T15:21:36.302Z,10.60
2023-02-17T15:24:49.261Z,11.53
2023-02-17T15:28:03.342Z,12.15
2023-02-17T15:31:20.938Z,10.25
2023-02-17T15:34:37.268Z,11.53
2023-02-17T15:37:52.627Z,10.15
2023-02-17T15:41:06.229Z,10.40
2023-02-17T15:44:23.245Z,10.90
2023-02-17T15:50:48.582Z,11.68
2023-02-17T15:54:03.813Z,9.55
2023-02-17T16:00:28.760Z,8.63
2023-02-17T16:03:41.373Z,8.95
2023-02-17T16:06:53.940Z,6.38
2023-02-17T16:10:06.677Z,7.63
2023-02-17T16:13:22.004Z,6.35
2023-02-17T16:16:37.836Z,8.23
2023-02-17T16:19:50.482Z,7.40
2023-02-17T16:23:02.860Z,6.70
2023-02-17T16:26:23.803Z,7.00
2023-02-17T16:29:36.075Z,6.63
2023-02-17T16:32:48.176Z,7.25
2023-02-17T16:36:00.431Z,5.60
2023-02-17T16:39:20.259Z,5.78
2023-02-17T16:42:32.531Z,5.90
2023-02-17T16:45:50.082Z,5.05
2023-02-17T16:49:02.403Z,6.33
2023-02-17T16:52:24.155Z,5.30
2023-02-17T16:55:40.009Z,7.00
2023-02-17T16:58:52.000Z,7.33
2023-02-17T17:02:04.116Z,8.08
2023-02-17T17:05:17.686Z,9.65
2023-02-17T17:08:29.864Z,8.18
2023-02-17T17:11:42.034Z,8.05
2023-02-17T17:14:54.153Z,11.53
2023-02-17T17:18:09.635Z,7.60
2023-02-17T17:21:23.369Z,7.18
2023-02-17T17:24:35.487Z,8.08
2023-02-17T17:27:48.338Z,7.50
2023-02-17T17:31:02.532Z,9.08
2023-02-17T17:34:15.155Z,10.38
2023-02-17T17:37:27.294Z,7.25
2023-02-17T17:40:43.747Z,9.33
2023-02-17T17:43:56.196Z,8.40
2023-02-17T17:47:09.197Z,7.48
2023-02-17T17:50:25.846Z,8.83
2023-02-17T17:53:38.039Z,7.90
2023-02-17T17:56:51.635Z,7.60
2023-02-17T18:00:04.064Z,8.55
2023-02-17T18:03:16.482Z,9.10
2023-02-17T18:06:33.093Z,7.90
2023-02-17T18:09:48.776Z,7.65
2023-02-17T18:13:01.416Z,8.85
2023-02-17T18:16:13.961Z,7.45
2023-02-17T18:19:27.571Z,8.63
2023-02-17T18:22:39.563Z,7.43
2023-02-17T18:25:51.756Z,8.73
2023-02-17T18:29:04.449Z,8.30
2023-02-17T18:32:18.013Z,7.85
2023-02-17T18:35:33.241Z,7.85
2023-02-17T18:38:46.030Z,8.13
2023-02-17T18:41:58.394Z,8.10
2023-02-17T18:45:11.923Z,9.10
2023-02-17T18:48:24.079Z,11.50
2023-02-17T18:51:36.518Z,9.35
2023-02-17T18:54:50.766Z,9.08
2023-02-17T18:58:03.614Z,6.63
2023-02-17T19:01:22.545Z,7.43
2023-02-17T19:04:35.169Z,6.80
2023-02-17T19:07:47.513Z,7.33
2023-02-17T19:10:59.856Z,8.58
2023-02-17T19:14:12.433Z,10.48
2023-02-17T19:20:31.019Z,8.10
2023-02-17T19:23:47.198Z,7.48
2023-02-17T19:27:01.337Z,8.50
2023-02-17T19:30:16.752Z,9.28
2023-02-17T19:33:29.353Z,8.50
2023-02-17T19:36:41.710Z,8.35
2023-02-17T19:39:54.848Z,8.38
2023-02-17T19:43:07.223Z,8.63
2023-02-17T19:46:21.397Z,8.10
2023-02-17T19:49:33.808Z,8.93
2023-02-17T19:52:46.064Z,10.10
2023-02-17T19:55:58.085Z,8.38
2023-02-17T19:59:10.072Z,6.60
2023-02-17T20:02:41.766Z,10.45
2023-02-17T20:05:56.816Z,9.85
2023-02-17T20:09:13.514Z,8.85
2023-02-17T20:12:25.803Z,10.88
2023-02-17T20:15:37.838Z,9.05
2023-02-17T20:18:55.220Z,9.20
2023-02-17T20:22:08.328Z,10.38
2023-02-17T20:25:20.971Z,9.00
2023-02-17T20:28:34.891Z,7.35
2023-02-17T20:31:48.183Z,11.23
2023-02-17T20:35:02.929Z,8.65
2023-02-17T20:38:16.126Z,8.53
2023-02-17T20:41:32.323Z,7.50
2023-02-17T20:44:49.782Z,6.43
2023-02-17T20:48:07.030Z,9.95
2023-02-17T20:51:19.917Z,6.75
2023-02-17T20:54:33.276Z,9.80
2023-02-17T20:57:48.399Z,8.30
2023-02-17T21:01:00.679Z,10.30
2023-02-17T21:04:15.412Z,7.88
2023-02-17T21:07:32.172Z,8.38
2023-02-17T21:10:50.174Z,6.65
2023-02-17T21:14:06.244Z,7.38
2023-02-17T21:17:22.618Z,7.73
2023-02-17T21:20:35.511Z,7.48
2023-02-17T21:23:48.160Z,8.95
2023-02-17T21:27:01.164Z,9.15
2023-02-17T21:30:18.354Z,8.20
2023-02-17T21:33:30.488Z,6.65
2023-02-17T21:36:42.908Z,8.28
2023-02-17T21:39:55.095Z,8.30
2023-02-17T21:43:21.786Z,9.83
2023-02-17T21:46:34.778Z,8.13
2023-02-17T21:49:47.318Z,8.38
2023-02-17T21:52:59.501Z,7.28
2023-02-17T21:56:13.434Z,8.43
2023-02-17T21:59:25.481Z,8.10
2023-02-17T22:02:37.515Z,8.18
2023-02-17T22:05:49.617Z,9.33
2023-02-17T22:09:02.806Z,8.18
2023-02-17T22:12:15.403Z,9.00
2023-02-17T22:15:27.471Z,7.18
2023-02-17T22:18:39.628Z,7.43
2023-02-17T22:21:53.527Z,6.78
2023-02-17T22:25:05.822Z,5.08
2023-02-17T22:28:17.813Z,4.73
2023-02-17T22:31:32.853Z,5.18
2023-02-17T22:34:45.267Z,4.65
2023-02-17T22:37:57.641Z,5.70
2023-02-17T22:41:13.288Z,6.33
2023-02-17T22:44:25.651Z,5.70
2023-02-17T22:47:37.844Z,4.60
2023-02-17T22:50:49.855Z,4.35
2023-02-17T22:54:03.993Z,4.23
2023-02-17T22:57:16.106Z,4.78
2023-02-17T23:00:28.769Z,4.70
2023-02-17T23:03:42.369Z,5.50
2023-02-17T23:06:54.318Z,4.43
2023-02-17T23:10:06.373Z,5.83
2023-02-17T23:13:19.009Z,4.75
2023-02-17T23:16:31.076Z,4.83
2023-02-17T23:19:45.199Z,4.78
2023-02-17T23:22:57.621Z,4.13
2023-02-17T23:26:10.667Z,3.45
2023-02-17T23:29:24.107Z,6.35
2023-02-17T23:32:36.064Z,4.60
2023-02-17T23:35:49.252Z,4.03
2023-02-17T23:39:03.506Z,3.95
2023-02-17T23:42:15.572Z,5.73
2023-02-17T23:51:28.055Z,3.98
2023-02-17T23:54:40.999Z,4.70
2023-02-17T23:57:53.730Z,5.00
